createdAt,value
2019-01-03T00:00:54.723Z,97815.36
2019-01-03T00:03:44.504Z,97822.08
2019-01-03T00:06:33.797Z,97815.46
2019-01-03T00:09:22.010Z,97814.59
2019-01-03T00:12:09.725Z,97818.20
2019-01-03T00:15:04.744Z,97810.66
2019-01-03T00:17:53.928Z,97819.18
2019-01-03T00:20:59.752Z,97821.45
2019-01-03T00:23:49.948Z,97818.30
2019-01-03T00:26:31.632Z,97815.97
2019-01-03T00:29:26.905Z,97812.41
2019-01-03T00:32:14.838Z,97812.81
2019-01-03T00:35:02.586Z,97810.91
2019-01-03T00:37:51.734Z,97811.95
2019-01-03T00:40:45.176Z,97815.09
2019-01-03T00:43:33.246Z,97816.94
2019-01-03T00:46:17.000Z,97820.19
2019-01-03T00:52:21.804Z,97813.16
2019-01-03T00:55:26.068Z,97820.81
2019-01-03T00:58:13.972Z,97813.27
2019-01-03T01:01:12.379Z,97824.94
2019-01-03T01:04:07.657Z,97825.03
2019-01-03T01:07:10.662Z,97818.02
2019-01-03T01:09:52.633Z,97825.50
2019-01-03T01:12:40.356Z,97832.31
2019-01-03T01:15:38.370Z,97830.56
2019-01-03T01:18:33.790Z,97831.06
2019-01-03T01:21:29.027Z,97836.59
2019-01-03T01:24:30.123Z,97846.86
2019-01-03T01:27:31.329Z,97841.39
2019-01-03T01:30:23.471Z,97857.97
2019-01-03T01:33:15.410Z,97869.37
2019-01-03T01:35:56.313Z,97875.20
2019-01-03T01:38:44.562Z,97890.84
2019-01-03T01:41:39.761Z,97901.11
2019-01-03T01:44:35.199Z,97898.43
2019-01-03T01:47:36.319Z,97910.10
2019-01-03T01:50:25.506Z,97907.83
2019-01-03T01:53:13.270Z,97909.73
2019-01-03T01:56:02.032Z,97907.60
2019-01-03T01:59:01.764Z,97904.51
2019-01-03T02:01:44.467Z,97907.29
2019-01-03T02:04:31.310Z,97909.09
2019-01-03T02:07:20.843Z,97901.60
2019-01-03T02:10:08.350Z,97892.70
2019-01-03T02:13:03.307Z,97887.02
2019-01-03T02:15:52.768Z,97887.95
2019-01-03T02:18:55.839Z,97879.34
2019-01-03T02:22:03.531Z,97873.70
2019-01-03T02:24:52.764Z,97881.34
2019-01-03T02:27:40.457Z,97882.59
2019-01-03T02:30:42.202Z,97881.66
2019-01-03T02:33:30.606Z,97867.14
2019-01-03T02:36:29.153Z,97875.28
2019-01-03T02:39:21.324Z,97870.38
2019-01-03T02:42:25.738Z,97878.84
2019-01-03T02:45:21.210Z,97883.89
2019-01-03T02:48:08.942Z,97895.00
2019-01-03T02:50:58.065Z,97898.66
2019-01-03T02:53:46.095Z,97899.53
2019-01-03T02:56:30.500Z,97907.17
2019-01-03T02:59:28.439Z,97900.08
2019-01-03T03:02:16.196Z,97904.95
2019-01-03T03:05:04.939Z,97896.12
2019-01-03T03:07:49.513Z,97904.26
2019-01-03T03:10:36.593Z,97895.19
2019-01-03T03:13:18.220Z,97896.30
2019-01-03T03:16:10.329Z,97898.42
2019-01-03T03:19:02.320Z,97897.55
2019-01-03T03:21:48.139Z,97894.87
2019-01-03T03:24:36.233Z,97893.62
2019-01-03T03:27:40.471Z,97911.99
2019-01-03T03:30:41.534Z,97903.88
2019-01-03T03:33:36.853Z,97921.88
2019-01-03T03:36:34.987Z,97914.62
2019-01-03T03:39:44.104Z,97899.54
2019-01-03T03:42:31.899Z,97914.21
2019-01-03T03:45:19.858Z,97914.30
2019-01-03T03:48:21.073Z,97920.69
2019-01-03T03:51:16.266Z,97912.55
2019-01-03T03:54:05.450Z,97915.82
2019-01-03T03:57:09.682Z,97921.94
2019-01-03T03:59:58.807Z,97914.48
2019-01-03T04:03:00.279Z,97925.59
2019-01-03T04:05:48.152Z,97927.72
2019-01-03T04:08:38.712Z,97920.22
2019-01-03T04:11:27.621Z,97931.42
2019-01-03T04:14:19.406Z,97916.11
2019-01-03T04:17:16.893Z,97934.80
2019-01-03T04:20:21.097Z,97934.02
2019-01-03T04:23:09.063Z,97940.67
2019-01-03T04:26:16.452Z,97946.32
2019-01-03T04:29:04.396Z,97946.41
2019-01-03T04:31:56.511Z,97948.95
2019-01-03T04:34:50.771Z,97956.59
2019-01-03T04:37:49.245Z,97959.73
2019-01-03T04:40:47.276Z,97956.03
2019-01-03T04:43:36.948Z,97975.28
2019-01-03T04:46:38.387Z,97969.13
2019-01-03T04:49:42.879Z,97961.35
2019-01-03T04:52:30.753Z,97961.64
2019-01-03T04:55:18.704Z,97973.34
2019-01-03T04:58:07.765Z,97975.70
2019-01-03T05:00:56.781Z,97975.41
2019-01-03T05:03:44.558Z,97980.22
2019-01-03T05:06:32.616Z,97972.17
2019-01-03T05:09:20.308Z,97969.95
2019-01-03T05:12:24.855Z,97975.32
2019-01-03T05:15:19.743Z,97981.24
2019-01-03T05:18:17.939Z,97984.39
2019-01-03T05:21:10.126Z,97984.30
2019-01-03T05:24:11.516Z,97986.98
2019-01-03T05:27:12.754Z,97988.83
2019-01-03T05:30:00.184Z,98001.05
2019-01-03T05:32:53.133Z,98006.97
2019-01-03T05:35:48.145Z,98014.05
2019-01-03T05:38:55.613Z,98007.06
2019-01-03T05:41:43.624Z,98021.31
2019-01-03T05:44:38.645Z,98032.14
2019-01-03T05:47:26.541Z,98042.41
2019-01-03T05:50:30.827Z,98045.64
2019-01-03T05:53:28.914Z,98061.48
2019-01-03T05:56:21.141Z,98050.75
2019-01-03T05:59:16.350Z,98052.17
2019-01-03T06:02:17.610Z,98058.42
2019-01-03T06:05:18.938Z,98046.34
2019-01-03T06:08:06.975Z,98056.77
2019-01-03T06:10:48.466Z,98042.47
2019-01-03T06:13:36.251Z,98049.91
2019-01-03T06:16:31.277Z,98050.37
2019-01-03T06:19:32.727Z,98048.30
2019-01-03T06:22:24.915Z,98050.98
2019-01-03T06:25:13.160Z,98055.42
2019-01-03T06:28:02.551Z,98063.38
2019-01-03T06:31:07.122Z,98072.64
2019-01-03T06:33:54.719Z,98079.27
2019-01-03T06:36:43.900Z,98080.69
2019-01-03T06:39:36.322Z,98083.38
2019-01-03T06:42:25.461Z,98087.08
2019-01-03T06:45:32.730Z,98090.46
2019-01-03T06:48:28.849Z,98095.28
2019-01-03T06:51:11.987Z,98099.72
2019-01-03T06:54:01.098Z,98115.18
2019-01-03T06:56:48.813Z,98109.27
2019-01-03T06:59:36.624Z,98106.95
2019-01-03T07:02:25.789Z,98111.70
2019-01-03T07:05:17.949Z,98106.16
2019-01-03T07:08:09.362Z,98104.77
2019-01-03T07:11:04.301Z,98101.82
2019-01-03T07:13:52.463Z,98101.77
2019-01-03T07:16:41.566Z,98112.33
2019-01-03T07:19:30.781Z,98106.09
2019-01-03T07:22:19.869Z,98114.09
2019-01-03T07:25:09.078Z,98105.39
2019-01-03T07:27:57.303Z,98118.91
2019-01-03T07:30:45.029Z,98126.08
2019-01-03T07:33:46.491Z,98137.61
2019-01-03T07:36:38.586Z,98140.67
2019-01-03T07:39:29.260Z,98158.92
2019-01-03T07:42:36.994Z,98167.30
2019-01-03T07:45:32.171Z,98170.53
2019-01-03T07:48:21.308Z,98178.27
2019-01-03T07:51:16.463Z,98177.66
2019-01-03T07:54:17.764Z,98182.86
2019-01-03T07:57:05.721Z,98180.64
2019-01-03T07:59:53.445Z,98177.41
2019-01-03T08:02:51.375Z,98176.47
2019-01-03T08:05:39.029Z,98177.34
2019-01-03T08:08:40.430Z,98171.34
2019-01-03T08:11:35.650Z,98170.00
2019-01-03T08:14:23.736Z,98162.95
2019-01-03T08:17:18.879Z,98165.09
2019-01-03T08:20:06.644Z,98170.88
2019-01-03T08:22:56.264Z,98167.69
2019-01-03T08:25:54.646Z,98163.11
2019-01-03T08:28:38.177Z,98162.73
2019-01-03T08:31:25.903Z,98165.73
2019-01-03T08:34:17.818Z,98158.94
2019-01-03T08:37:22.093Z,98133.97
2019-01-03T08:40:17.380Z,98133.97
2019-01-03T08:43:05.087Z,98134.34
2019-01-03T08:45:57.101Z,98148.42
2019-01-03T08:48:52.299Z,98143.52
2019-01-03T08:51:53.688Z,98159.17
2019-01-03T08:54:49.052Z,98167.38
2019-01-03T08:57:41.219Z,98165.42
2019-01-03T09:00:30.359Z,98175.98
2019-01-03T09:03:28.482Z,98173.71
2019-01-03T09:06:16.213Z,98163.75
2019-01-03T09:09:02.938Z,98162.00
2019-01-03T09:11:54.977Z,98169.04
2019-01-03T09:14:47.193Z,98151.11
2019-01-03T09:17:48.562Z,98149.71
2019-01-03T09:20:40.471Z,98146.94
2019-01-03T09:23:36.991Z,98143.89
2019-01-03T09:26:26.123Z,98130.03
2019-01-03T09:29:14.064Z,98130.47
2019-01-03T09:32:06.005Z,98132.16
2019-01-03T09:34:57.956Z,98130.73
2019-01-03T09:38:05.596Z,98139.20
2019-01-03T09:40:53.554Z,98141.24
2019-01-03T09:43:41.492Z,98156.48
2019-01-03T09:46:11.723Z,98156.58
2019-01-03T09:48:41.991Z,98163.84
2019-01-03T09:51:12.210Z,98156.48
2019-01-03T09:53:42.459Z,98159.73
2019-01-03T09:56:12.710Z,98162.36
2019-01-03T09:58:42.967Z,98155.23
2019-01-03T10:01:13.291Z,98149.77
2019-01-03T10:03:43.510Z,98147.49
2019-01-03T10:06:13.857Z,98147.81
2019-01-03T10:08:44.150Z,98159.41
2019-01-03T10:11:14.423Z,98162.59
2019-01-03T10:13:44.635Z,98167.09
2019-01-03T10:16:14.868Z,98159.03
2019-01-03T10:18:45.205Z,98151.43
2019-01-03T10:21:16.318Z,98133.03
2019-01-03T10:23:46.559Z,98141.94
2019-01-03T10:26:16.782Z,98145.03
2019-01-03T10:28:47.033Z,98152.12
2019-01-03T10:31:17.426Z,98151.34
2019-01-03T10:33:47.675Z,98157.69
2019-01-03T10:36:24.140Z,98148.28
2019-01-03T10:38:49.829Z,98150.00
2019-01-03T10:41:20.079Z,98145.59
2019-01-03T10:43:50.370Z,98140.31
2019-01-03T10:46:20.713Z,98137.53
2019-01-03T10:48:50.935Z,98126.22
2019-01-03T10:51:21.183Z,98134.61
2019-01-03T10:53:51.440Z,98135.08
2019-01-03T10:56:21.676Z,98125.11
2019-01-03T10:58:51.951Z,98114.05
2019-01-03T11:01:22.174Z,98122.52
2019-01-03T11:03:52.419Z,98118.86
2019-01-03T11:06:22.744Z,98113.95
2019-01-03T11:08:52.989Z,98129.05
2019-01-03T11:11:23.228Z,98121.95
2019-01-03T11:13:53.506Z,98116.08
2019-01-03T11:16:23.727Z,98122.89
2019-01-03T11:18:54.027Z,98115.61
2019-01-03T11:21:25.143Z,98111.59
2019-01-03T11:23:55.380Z,98115.70
2019-01-03T11:26:28.034Z,98106.86
2019-01-03T11:28:58.259Z,98101.02
2019-01-03T11:31:28.859Z,98097.45
2019-01-03T11:33:59.157Z,98090.73
2019-01-03T11:36:29.390Z,98094.13
2019-01-03T11:38:59.712Z,98093.20
2019-01-03T11:41:30.020Z,98083.33
2019-01-03T11:44:00.667Z,98082.92
2019-01-03T11:46:30.880Z,98078.42
2019-01-03T11:49:01.155Z,98076.52
2019-01-03T11:51:31.367Z,98065.36
2019-01-03T11:54:01.613Z,98061.83
2019-01-03T11:56:31.855Z,98043.08
2019-01-03T11:59:02.156Z,98040.02
2019-01-03T12:01:32.424Z,98038.11
2019-01-03T12:04:02.645Z,98030.43
2019-01-03T12:06:32.940Z,98025.33
2019-01-03T12:09:03.343Z,98026.48
2019-01-03T12:11:34.674Z,98024.27
2019-01-03T12:14:04.889Z,98022.92
2019-01-03T12:16:35.144Z,98018.75
2019-01-03T12:19:05.373Z,98008.88
2019-01-03T12:21:35.616Z,98000.50
2019-01-03T12:24:05.851Z,98004.06
2019-01-03T12:26:36.529Z,98002.78
2019-01-03T12:29:06.756Z,98001.66
2019-01-03T12:31:37.038Z,97997.56
2019-01-03T12:34:07.341Z,98010.59
2019-01-03T12:36:37.559Z,98002.44
2019-01-03T12:39:08.889Z,97998.91
2019-01-03T12:41:39.114Z,98005.63
2019-01-03T12:44:09.437Z,97999.53
2019-01-03T12:46:39.695Z,97999.94
2019-01-03T12:49:09.915Z,97990.84
2019-01-03T12:51:40.196Z,97993.59
2019-01-03T12:54:10.422Z,97991.09
2019-01-03T12:56:40.948Z,97990.53
2019-01-03T12:59:11.252Z,97976.34
2019-01-03T13:01:41.847Z,97978.19
2019-01-03T13:04:12.157Z,97973.19
2019-01-03T13:06:42.413Z,97971.38
2019-01-03T13:09:18.350Z,97973.59
2019-01-03T13:11:49.078Z,97975.09
2019-01-03T13:14:19.330Z,97965.03
2019-01-03T13:16:49.716Z,97972.09
2019-01-03T13:19:19.974Z,97965.78
2019-01-03T13:21:50.270Z,97960.78
2019-01-03T13:24:20.614Z,97955.04
2019-01-03T13:26:51.946Z,97955.98
2019-01-03T13:29:22.234Z,97967.91
2019-01-03T13:31:52.480Z,97958.51
2019-01-03T13:34:22.700Z,97949.79
2019-01-03T13:36:52.947Z,97954.84
2019-01-03T13:39:23.176Z,97945.07
2019-01-03T13:41:53.843Z,97947.56
2019-01-03T13:44:24.060Z,97958.87
2019-01-03T13:46:54.307Z,97943.05
2019-01-03T13:49:26.691Z,97941.20
2019-01-03T13:51:56.927Z,97933.86
2019-01-03T13:54:27.189Z,97943.06
2019-01-03T13:56:57.490Z,97943.54
2019-01-03T13:59:27.753Z,97947.56
2019-01-03T14:01:58.005Z,97947.97
2019-01-03T14:04:28.248Z,97959.09
2019-01-03T14:06:59.194Z,97955.00
2019-01-03T14:09:30.047Z,97957.03
2019-01-03T14:12:00.471Z,97954.38
2019-01-03T14:14:30.784Z,97959.29
2019-01-03T14:17:01.067Z,97960.63
2019-01-03T14:19:31.320Z,97955.73
2019-01-03T14:22:02.377Z,97953.50
2019-01-03T14:24:32.822Z,97949.32
2019-01-03T14:27:03.240Z,97950.56
2019-01-03T14:29:33.500Z,97941.82
2019-01-03T14:32:16.673Z,97941.36
2019-01-03T14:34:47.862Z,97947.56
2019-01-03T14:37:18.198Z,97949.63
2019-01-03T14:39:49.621Z,97944.26
2019-01-03T14:42:21.568Z,97938.59
2019-01-03T14:44:55.292Z,97936.47
2019-01-03T14:47:26.105Z,97935.69
2019-01-03T14:49:56.889Z,97938.00
2019-01-03T14:52:28.201Z,97933.50
2019-01-03T14:54:59.337Z,97936.82
2019-01-03T14:57:30.250Z,97933.30
2019-01-03T15:00:01.905Z,97940.27
2019-01-03T15:02:32.642Z,97936.89
2019-01-03T15:05:03.859Z,97934.36
2019-01-03T15:07:35.974Z,97929.55
2019-01-03T15:10:07.279Z,97930.02
2019-01-03T15:12:38.584Z,97919.77
2019-01-03T15:15:09.970Z,97918.33
2019-01-03T15:17:41.915Z,97924.52
2019-01-03T15:20:13.728Z,97918.21
2019-01-03T15:22:45.106Z,97918.42
2019-01-03T15:25:16.313Z,97923.11
2019-01-03T15:27:47.282Z,97930.30
2019-01-03T15:30:18.720Z,97935.36
2019-01-03T15:32:50.041Z,97936.01
2019-01-03T15:35:21.084Z,97935.67
2019-01-03T15:37:52.029Z,97932.52
2019-01-03T15:40:24.153Z,97924.36
2019-01-03T15:42:55.214Z,97919.14
2019-01-03T15:45:26.181Z,97911.84
2019-01-03T15:47:57.454Z,97906.13
2019-01-03T15:50:28.646Z,97910.37
2019-01-03T15:52:59.761Z,97916.21
2019-01-03T15:55:30.553Z,97905.09
2019-01-03T15:58:01.471Z,97903.53
2019-01-03T16:00:32.580Z,97901.62
2019-01-03T16:03:03.414Z,97907.47
2019-01-03T16:05:34.566Z,97906.00
2019-01-03T16:08:05.757Z,97906.47
2019-01-03T16:10:36.685Z,97907.63
2019-01-03T16:13:07.954Z,97908.24
2019-01-03T16:15:39.343Z,97923.58
2019-01-03T16:18:10.307Z,97918.02
2019-01-03T16:20:41.361Z,97923.39
2019-01-03T16:23:12.474Z,97919.98
2019-01-03T16:25:43.753Z,97914.21
2019-01-03T16:28:14.883Z,97916.42
2019-01-03T16:30:46.007Z,97919.45
2019-01-03T16:33:16.924Z,97924.14
2019-01-03T16:35:49.625Z,97917.08
2019-01-03T16:38:20.357Z,97925.98
2019-01-03T16:40:51.653Z,97920.55
2019-01-03T16:43:23.224Z,97920.83
2019-01-03T16:45:54.325Z,97916.98
2019-01-03T16:48:25.534Z,97921.58
2019-01-03T16:50:56.459Z,97926.39
2019-01-03T16:53:27.502Z,97927.42
2019-01-03T16:55:58.585Z,97929.23
2019-01-03T16:58:29.547Z,97924.36
2019-01-03T17:01:00.930Z,97925.95
2019-01-03T17:03:31.665Z,97925.30
2019-01-03T17:06:02.725Z,97921.23
2019-01-03T17:08:33.731Z,97917.74
2019-01-03T17:11:05.452Z,97914.71
2019-01-03T17:13:36.781Z,97917.87
2019-01-03T17:16:08.130Z,97921.37
2019-01-03T17:18:39.295Z,97925.70
2019-01-03T17:21:10.108Z,97922.05
2019-01-03T17:23:41.064Z,97923.95
2019-01-03T17:26:12.125Z,97927.33
2019-01-03T17:28:43.932Z,97933.77
2019-01-03T17:31:24.948Z,97937.23
2019-01-03T17:33:56.781Z,97926.48
2019-01-03T17:36:27.056Z,97943.55
2019-01-03T17:38:57.264Z,97943.95
2019-01-03T17:41:27.472Z,97948.05
2019-01-03T17:43:57.713Z,97947.79
2019-01-03T17:46:27.932Z,97933.27
2019-01-03T17:48:58.209Z,97943.95
2019-01-03T17:51:28.478Z,97957.38
2019-01-03T17:53:58.713Z,97948.82
2019-01-03T17:56:28.927Z,97966.47
2019-01-03T17:58:59.133Z,97963.38
2019-01-03T18:01:29.350Z,97970.31
2019-01-03T18:03:59.589Z,97977.03
2019-01-03T18:06:29.844Z,97974.66
2019-01-03T18:09:00.062Z,97952.70
2019-01-03T18:11:30.394Z,97963.03
2019-01-03T18:14:00.589Z,97968.91
2019-01-03T18:16:32.035Z,97968.13
2019-01-03T18:19:02.265Z,97975.13
2019-01-03T18:21:32.481Z,97982.25
2019-01-03T18:24:02.710Z,97991.66
2019-01-03T18:26:32.978Z,98002.49
2019-01-03T18:29:03.213Z,98005.09
2019-01-03T18:31:33.440Z,97997.03
2019-01-03T18:34:03.745Z,97996.06
2019-01-03T18:36:34.036Z,97996.56
2019-01-03T18:39:05.092Z,97990.47
2019-01-03T18:41:35.304Z,98009.83
2019-01-03T18:44:06.449Z,98004.77
2019-01-03T18:46:36.751Z,98013.52
2019-01-03T18:49:06.953Z,98012.84
2019-01-03T18:51:37.192Z,98015.37
2019-01-03T18:54:07.404Z,98008.65
2019-01-03T18:56:37.705Z,98013.06
2019-01-03T18:59:07.946Z,98018.99
2019-01-03T19:01:38.181Z,98023.25
2019-01-03T19:04:08.714Z,98025.93
2019-01-03T19:06:38.922Z,98033.11
2019-01-03T19:09:09.236Z,98024.27
2019-01-03T19:11:39.522Z,98034.96
2019-01-03T19:14:09.761Z,98038.90
2019-01-03T19:16:41.046Z,98053.83
2019-01-03T19:19:11.290Z,98050.98
2019-01-03T19:21:41.534Z,98063.64
2019-01-03T19:24:11.747Z,98075.32
2019-01-03T19:26:41.986Z,98074.39
2019-01-03T19:29:12.203Z,98069.33
2019-01-03T19:31:42.445Z,98062.67
2019-01-03T19:34:12.760Z,98075.32
2019-01-03T19:36:44.582Z,98079.67
2019-01-03T19:39:14.806Z,98083.00
2019-01-03T19:41:45.026Z,98089.26
2019-01-03T19:44:15.311Z,98090.83
2019-01-03T19:46:45.597Z,98091.85
2019-01-03T19:49:15.820Z,98106.08
2019-01-03T19:51:46.122Z,98107.09
2019-01-03T19:54:19.134Z,98112.00
2019-01-03T19:56:50.379Z,98109.70
2019-01-03T19:59:20.726Z,98110.10
2019-01-03T20:01:51.032Z,98109.78
2019-01-03T20:04:21.449Z,98110.81
2019-01-03T20:06:51.895Z,98113.34
2019-01-03T20:09:22.347Z,98117.84
2019-01-03T20:11:52.813Z,98119.19
2019-01-03T20:14:23.190Z,98123.22
2019-01-03T20:16:53.551Z,98122.98
2019-01-03T20:19:24.010Z,98125.26
2019-01-03T20:21:54.505Z,98123.12
2019-01-03T20:24:25.071Z,98120.53
2019-01-03T20:26:55.748Z,98116.83
2019-01-03T20:29:26.186Z,98124.41
2019-01-03T20:31:56.569Z,98127.48
2019-01-03T20:34:27.013Z,98122.98
2019-01-03T20:36:57.449Z,98126.14
2019-01-03T20:39:27.716Z,98124.23
2019-01-03T20:41:58.235Z,98118.08
2019-01-03T20:44:28.648Z,98119.83
2019-01-03T20:46:59.098Z,98119.83
2019-01-03T20:49:29.470Z,98121.23
2019-01-03T20:52:00.379Z,98115.86
2019-01-03T20:54:35.364Z,98117.70
2019-01-03T20:57:09.380Z,98125.67
2019-01-03T20:59:40.178Z,98131.98
2019-01-03T21:02:10.530Z,98131.59
2019-01-03T21:04:40.905Z,98132.30
2019-01-03T21:07:13.128Z,98137.58
2019-01-03T21:09:43.555Z,98134.89
2019-01-03T21:12:14.018Z,98144.80
2019-01-03T21:14:44.387Z,98140.67
2019-01-03T21:17:14.654Z,98133.08
2019-01-03T21:19:44.994Z,98141.23
2019-01-03T21:22:15.297Z,98145.36
2019-01-03T21:24:45.642Z,98145.27
2019-01-03T21:27:15.916Z,98151.20
2019-01-03T21:29:46.283Z,98151.52
2019-01-03T21:32:16.675Z,98149.85
2019-01-03T21:34:47.034Z,98151.42
2019-01-03T21:37:17.608Z,98145.91
2019-01-03T21:39:47.964Z,98147.72
2019-01-03T21:42:18.357Z,98149.30
2019-01-03T21:44:48.639Z,98149.77
2019-01-03T21:47:19.025Z,98148.89
2019-01-03T21:49:50.473Z,98151.20
2019-01-03T21:52:21.135Z,98153.09
2019-01-03T21:54:51.560Z,98139.66
2019-01-03T21:57:22.636Z,98136.66
2019-01-03T21:59:52.949Z,98143.60
2019-01-03T22:02:23.445Z,98143.28
2019-01-03T22:04:53.872Z,98145.12
2019-01-03T22:07:24.281Z,98149.21
2019-01-03T22:09:54.768Z,98150.17
2019-01-03T22:12:25.070Z,98155.93
2019-01-03T22:14:55.305Z,98157.69
2019-01-03T22:17:25.523Z,98153.23
2019-01-03T22:19:55.769Z,98161.72
2019-01-03T22:22:26.063Z,98160.46
2019-01-03T22:24:56.331Z,98157.77
2019-01-03T22:27:26.550Z,98155.14
2019-01-03T22:29:56.795Z,98155.64
2019-01-03T22:32:27.046Z,98161.39
2019-01-03T22:34:58.348Z,98153.23
2019-01-03T22:37:28.602Z,98147.87
2019-01-03T22:39:58.844Z,98155.70
2019-01-03T22:42:29.075Z,98159.34
2019-01-03T22:44:59.451Z,98156.43
2019-01-03T22:47:29.644Z,98163.44
2019-01-03T22:49:59.849Z,98165.89
2019-01-03T22:52:30.084Z,98160.52
2019-01-03T22:55:00.321Z,98170.98
2019-01-03T22:57:31.631Z,98173.66
2019-01-03T23:00:01.947Z,98164.48
2019-01-03T23:02:32.172Z,98173.80
2019-01-03T23:05:02.946Z,98173.02
2019-01-03T23:07:33.168Z,98176.22
2019-01-03T23:10:03.393Z,98167.47
2019-01-03T23:12:33.622Z,98175.05
2019-01-03T23:15:03.845Z,98175.42
2019-01-03T23:17:34.166Z,98182.88
2019-01-03T23:20:04.400Z,98187.84
2019-01-03T23:22:35.726Z,98185.23
2019-01-03T23:25:05.943Z,98190.38
2019-01-03T23:27:36.201Z,98190.67
2019-01-03T23:30:06.775Z,98189.09
2019-01-03T23:32:37.081Z,98189.36
2019-01-03T23:35:07.359Z,98187.60
2019-01-03T23:37:37.607Z,98187.14
2019-01-03T23:40:07.940Z,98191.02
2019-01-03T23:42:38.167Z,98200.70
2019-01-03T23:45:19.579Z,98198.90
2019-01-03T23:47:51.411Z,98196.77
2019-01-03T23:50:24.550Z,98199.36
2019-01-03T23:52:54.783Z,98198.98
2019-01-03T23:55:25.353Z,98193.61
2019-01-03T23:57:55.655Z,98205.70
